sensor_id;sensor_type;location;lat;lon;timestamp;temperature;humidity
41142;SHT31;63666;52.284;20.890;2023-05-23T00:00:24;23.65;44.54
41142;SHT31;63666;52.284;20.890;2023-05-23T00:03:18;23.63;44.54
41142;SHT31;63666;52.284;20.890;2023-05-23T00:05:56;23.62;44.60
41142;SHT31;63666;52.284;20.890;2023-05-23T00:08:33;23.61;44.56
41142;SHT31;63666;52.284;20.890;2023-05-23T00:11:09;23.59;44.60
41142;SHT31;63666;52.284;20.890;2023-05-23T00:13:45;23.60;44.60
41142;SHT31;63666;52.284;20.890;2023-05-23T00:16:21;23.59;44.61
41142;SHT31;63666;52.284;20.890;2023-05-23T00:18:59;23.58;44.62
41142;SHT31;63666;52.284;20.890;2023-05-23T00:21:35;23.59;44.60
41142;SHT31;63666;52.284;20.890;2023-05-23T00:24:10;23.58;44.61
41142;SHT31;63666;52.284;20.890;2023-05-23T00:26:47;23.56;44.65
41142;SHT31;63666;52.284;20.890;2023-05-23T00:29:23;23.56;44.63
41142;SHT31;63666;52.284;20.890;2023-05-23T00:32:00;23.55;44.69
41142;SHT31;63666;52.284;20.890;2023-05-23T00:34:37;23.54;44.70
41142;SHT31;63666;52.284;20.890;2023-05-23T00:37:13;23.53;44.71
41142;SHT31;63666;52.284;20.890;2023-05-23T00:39:51;23.53;44.70
41142;SHT31;63666;52.284;20.890;2023-05-23T00:42:25;23.53;44.71
41142;SHT31;63666;52.284;20.890;2023-05-23T00:45:02;23.51;44.72
41142;SHT31;63666;52.284;20.890;2023-05-23T00:47:41;23.50;44.76
41142;SHT31;63666;52.284;20.890;2023-05-23T00:50:18;23.50;44.74
41142;SHT31;63666;52.284;20.890;2023-05-23T00:52:53;23.50;44.75
41142;SHT31;63666;52.284;20.890;2023-05-23T00:55:30;23.49;44.76
41142;SHT31;63666;52.284;20.890;2023-05-23T00:58:04;23.47;44.80
41142;SHT31;63666;52.284;20.890;2023-05-23T01:00:44;23.46;44.80
41142;SHT31;63666;52.284;20.890;2023-05-23T01:03:22;23.47;44.79
41142;SHT31;63666;52.284;20.890;2023-05-23T01:05:59;23.46;44.82
41142;SHT31;63666;52.284;20.890;2023-05-23T01:08:34;23.45;44.82
41142;SHT31;63666;52.284;20.890;2023-05-23T01:11:11;23.44;44.84
41142;SHT31;63666;52.284;20.890;2023-05-23T01:14:04;23.44;44.83
41142;SHT31;63666;52.284;20.890;2023-05-23T01:16:45;23.44;44.84
41142;SHT31;63666;52.284;20.890;2023-05-23T01:19:33;23.44;44.80
41142;SHT31;63666;52.284;20.890;2023-05-23T01:22:22;23.41;44.87
41142;SHT31;63666;52.284;20.890;2023-05-23T01:25:22;23.40;44.90
41142;SHT31;63666;52.284;20.890;2023-05-23T01:28:15;23.40;44.90
41142;SHT31;63666;52.284;20.890;2023-05-23T01:30:49;23.37;44.90
41142;SHT31;63666;52.284;20.890;2023-05-23T01:33:28;23.36;44.91
41142;SHT31;63666;52.284;20.890;2023-05-23T01:36:04;23.37;44.89
41142;SHT31;63666;52.284;20.890;2023-05-23T01:38:40;23.37;44.90
41142;SHT31;63666;52.284;20.890;2023-05-23T01:41:18;23.34;44.92
41142;SHT31;63666;52.284;20.890;2023-05-23T01:43:54;23.34;44.90
41142;SHT31;63666;52.284;20.890;2023-05-23T01:46:29;23.34;44.90
41142;SHT31;63666;52.284;20.890;2023-05-23T01:49:06;23.33;44.91
41142;SHT31;63666;52.284;20.890;2023-05-23T01:51:43;23.31;44.95
41142;SHT31;63666;52.284;20.890;2023-05-23T01:54:18;23.31;44.90
41142;SHT31;63666;52.284;20.890;2023-05-23T01:56:55;23.29;44.92
41142;SHT31;63666;52.284;20.890;2023-05-23T01:59:33;23.30;44.93
41142;SHT31;63666;52.284;20.890;2023-05-23T02:02:08;23.29;44.90
41142;SHT31;63666;52.284;20.890;2023-05-23T02:04:45;23.29;44.91
41142;SHT31;63666;52.284;20.890;2023-05-23T02:07:20;23.28;44.93
41142;SHT31;63666;52.284;20.890;2023-05-23T02:09:56;23.28;44.90
41142;SHT31;63666;52.284;20.890;2023-05-23T02:12:30;23.25;44.94
41142;SHT31;63666;52.284;20.890;2023-05-23T02:15:06;23.24;44.99
41142;SHT31;63666;52.284;20.890;2023-05-23T02:17:41;23.25;44.92
41142;SHT31;63666;52.284;20.890;2023-05-23T02:20:19;23.25;44.92
41142;SHT31;63666;52.284;20.890;2023-05-23T02:22:54;23.24;44.91
41142;SHT31;63666;52.284;20.890;2023-05-23T02:25:29;23.23;44.91
41142;SHT31;63666;52.284;20.890;2023-05-23T02:28:03;23.22;44.91
41142;SHT31;63666;52.284;20.890;2023-05-23T02:30:41;23.23;44.89
41142;SHT31;63666;52.284;20.890;2023-05-23T02:33:18;23.21;44.90
41142;SHT31;63666;52.284;20.890;2023-05-23T02:35:54;23.20;44.92
41142;SHT31;63666;52.284;20.890;2023-05-23T02:38:33;23.20;44.90
41142;SHT31;63666;52.284;20.890;2023-05-23T02:41:07;23.21;44.89
41142;SHT31;63666;52.284;20.890;2023-05-23T02:43:45;23.21;44.85
41142;SHT31;63666;52.284;20.890;2023-05-23T02:46:22;23.20;44.84
41142;SHT31;63666;52.284;20.890;2023-05-23T02:48:59;23.18;44.88
41142;SHT31;63666;52.284;20.890;2023-05-23T02:51:32;23.17;44.90
41142;SHT31;63666;52.284;20.890;2023-05-23T02:54:06;23.17;44.88
41142;SHT31;63666;52.284;20.890;2023-05-23T02:56:40;23.17;44.87
41142;SHT31;63666;52.284;20.890;2023-05-23T02:59:15;23.17;44.90
41142;SHT31;63666;52.284;20.890;2023-05-23T03:01:50;23.17;44.83
41142;SHT31;63666;52.284;20.890;2023-05-23T03:04:24;23.14;44.87
41142;SHT31;63666;52.284;20.890;2023-05-23T03:07:00;23.16;44.86
41142;SHT31;63666;52.284;20.890;2023-05-23T03:09:45;23.16;44.82
41142;SHT31;63666;52.284;20.890;2023-05-23T03:12:19;23.17;44.81
41142;SHT31;63666;52.284;20.890;2023-05-23T03:14:52;23.18;44.77
41142;SHT31;63666;52.284;20.890;2023-05-23T03:17:30;23.19;44.73
41142;SHT31;63666;52.284;20.890;2023-05-23T03:20:05;23.20;44.71
41142;SHT31;63666;52.284;20.890;2023-05-23T03:22:41;23.23;44.60
41142;SHT31;63666;52.284;20.890;2023-05-23T03:25:18;23.25;44.57
41142;SHT31;63666;52.284;20.890;2023-05-23T03:27:52;23.30;44.45
41142;SHT31;63666;52.284;20.890;2023-05-23T03:30:28;23.46;44.11
41142;SHT31;63666;52.284;20.890;2023-05-23T03:33:04;23.49;44.05
41142;SHT31;63666;52.284;20.890;2023-05-23T03:35:40;23.56;43.90
41142;SHT31;63666;52.284;20.890;2023-05-23T03:38:19;23.56;43.86
41142;SHT31;63666;52.284;20.890;2023-05-23T03:40:54;23.53;43.89
41142;SHT31;63666;52.284;20.890;2023-05-23T03:43:29;23.51;43.93
41142;SHT31;63666;52.284;20.890;2023-05-23T03:46:04;23.49;43.99
41142;SHT31;63666;52.284;20.890;2023-05-23T03:48:41;23.44;44.09
41142;SHT31;63666;52.284;20.890;2023-05-23T03:51:17;23.44;44.07
41142;SHT31;63666;52.284;20.890;2023-05-23T03:53:54;23.40;44.16
41142;SHT31;63666;52.284;20.890;2023-05-23T03:56:32;23.38;44.20
41142;SHT31;63666;52.284;20.890;2023-05-23T03:59:08;23.36;44.21
41142;SHT31;63666;52.284;20.890;2023-05-23T04:01:45;23.36;44.25
41142;SHT31;63666;52.284;20.890;2023-05-23T04:04:20;23.33;44.29
41142;SHT31;63666;52.284;20.890;2023-05-23T04:06:56;23.29;44.36
41142;SHT31;63666;52.284;20.890;2023-05-23T04:09:32;23.29;44.40
41142;SHT31;63666;52.284;20.890;2023-05-23T04:12:10;23.26;44.43
41142;SHT31;63666;52.284;20.890;2023-05-23T04:14:47;23.25;44.50
41142;SHT31;63666;52.284;20.890;2023-05-23T04:17:25;23.25;44.52
41142;SHT31;63666;52.284;20.890;2023-05-23T04:20:05;23.25;44.56
41142;SHT31;63666;52.284;20.890;2023-05-23T04:22:41;23.24;44.60
41142;SHT31;63666;52.284;20.890;2023-05-23T04:25:15;23.24;44.62
41142;SHT31;63666;52.284;20.890;2023-05-23T04:27:51;23.26;44.62
41142;SHT31;63666;52.284;20.890;2023-05-23T04:30:28;23.26;44.70
41142;SHT31;63666;52.284;20.890;2023-05-23T04:33:04;23.25;44.80
41142;SHT31;63666;52.284;20.890;2023-05-23T04:35:41;23.24;44.85
41142;SHT31;63666;52.284;20.890;2023-05-23T04:38:15;23.24;44.91
41142;SHT31;63666;52.284;20.890;2023-05-23T04:40:50;23.26;44.98
41142;SHT31;63666;52.284;20.890;2023-05-23T04:43:26;23.25;45.01
41142;SHT31;63666;52.284;20.890;2023-05-23T04:46:01;23.27;45.01
41142;SHT31;63666;52.284;20.890;2023-05-23T04:48:35;23.29;45.04
41142;SHT31;63666;52.284;20.890;2023-05-23T04:51:11;23.29;45.09
41142;SHT31;63666;52.284;20.890;2023-05-23T04:53:44;23.33;45.08
41142;SHT31;63666;52.284;20.890;2023-05-23T04:56:18;23.33;45.11
41142;SHT31;63666;52.284;20.890;2023-05-23T04:58:56;23.34;45.18
41142;SHT31;63666;52.284;20.890;2023-05-23T05:01:30;23.33;45.27
41142;SHT31;63666;52.284;20.890;2023-05-23T05:04:03;23.34;45.31
41142;SHT31;63666;52.284;20.890;2023-05-23T05:06:38;23.36;45.30
41142;SHT31;63666;52.284;20.890;2023-05-23T05:09:12;23.39;45.27
41142;SHT31;63666;52.284;20.890;2023-05-23T05:11:47;23.41;45.25
41142;SHT31;63666;52.284;20.890;2023-05-23T05:14:21;23.42;45.29
41142;SHT31;63666;52.284;20.890;2023-05-23T05:16:55;23.44;45.31
41142;SHT31;63666;52.284;20.890;2023-05-23T05:19:31;23.45;45.38
41142;SHT31;63666;52.284;20.890;2023-05-23T05:22:04;23.48;45.39
41142;SHT31;63666;52.284;20.890;2023-05-23T05:24:38;23.48;45.41
41142;SHT31;63666;52.284;20.890;2023-05-23T05:27:12;23.48;45.43
41142;SHT31;63666;52.284;20.890;2023-05-23T05:29:47;23.48;45.43
41142;SHT31;63666;52.284;20.890;2023-05-23T05:32:25;23.50;45.41
41142;SHT31;63666;52.284;20.890;2023-05-23T05:34:59;23.53;45.30
41142;SHT31;63666;52.284;20.890;2023-05-23T05:37:34;23.56;45.20
41142;SHT31;63666;52.284;20.890;2023-05-23T05:40:08;23.57;45.15
41142;SHT31;63666;52.284;20.890;2023-05-23T05:42:45;23.55;45.10
41142;SHT31;63666;52.284;20.890;2023-05-23T05:45:18;23.54;45.10
41142;SHT31;63666;52.284;20.890;2023-05-23T05:47:53;23.54;45.05
41142;SHT31;63666;52.284;20.890;2023-05-23T05:50:28;23.57;45.00
41142;SHT31;63666;52.284;20.890;2023-05-23T05:53:06;23.57;44.95
41142;SHT31;63666;52.284;20.890;2023-05-23T05:55:39;23.59;44.94
41142;SHT31;63666;52.284;20.890;2023-05-23T05:58:14;23.60;44.90
41142;SHT31;63666;52.284;20.890;2023-05-23T06:00:49;23.74;46.30
41142;SHT31;63666;52.284;20.890;2023-05-23T06:03:22;23.97;45.12
41142;SHT31;63666;52.284;20.890;2023-05-23T06:05:56;24.06;44.55
41142;SHT31;63666;52.284;20.890;2023-05-23T06:08:29;24.12;44.32
41142;SHT31;63666;52.284;20.890;2023-05-23T06:11:03;24.16;44.19
41142;SHT31;63666;52.284;20.890;2023-05-23T06:13:38;24.19;44.00
41142;SHT31;63666;52.284;20.890;2023-05-23T06:16:13;24.20;44.05
41142;SHT31;63666;52.284;20.890;2023-05-23T06:18:46;24.22;43.92
41142;SHT31;63666;52.284;20.890;2023-05-23T06:21:20;24.24;43.86
41142;SHT31;63666;52.284;20.890;2023-05-23T06:23:54;24.24;43.75
41142;SHT31;63666;52.284;20.890;2023-05-23T06:26:27;24.24;43.77
41142;SHT31;63666;52.284;20.890;2023-05-23T06:29:01;24.29;43.64
41142;SHT31;63666;52.284;20.890;2023-05-23T06:31:36;24.33;43.40
41142;SHT31;63666;52.284;20.890;2023-05-23T06:34:09;24.36;43.06
41142;SHT31;63666;52.284;20.890;2023-05-23T06:36:43;24.38;43.03
41142;SHT31;63666;52.284;20.890;2023-05-23T06:39:16;24.38;42.94
41142;SHT31;63666;52.284;20.890;2023-05-23T06:41:49;24.39;42.69
41142;SHT31;63666;52.284;20.890;2023-05-23T06:44:25;24.38;42.67
41142;SHT31;63666;52.284;20.890;2023-05-23T06:46:59;24.39;42.27
41142;SHT31;63666;52.284;20.890;2023-05-23T06:49:33;24.44;42.30
41142;SHT31;63666;52.284;20.890;2023-05-23T06:52:06;24.46;42.22
41142;SHT31;63666;52.284;20.890;2023-05-23T06:54:40;24.50;41.97
41142;SHT31;63666;52.284;20.890;2023-05-23T06:57:14;24.47;42.17
41142;SHT31;63666;52.284;20.890;2023-05-23T06:59:51;24.45;41.97
41142;SHT31;63666;52.284;20.890;2023-05-23T07:02:28;24.50;41.81
41142;SHT31;63666;52.284;20.890;2023-05-23T07:05:05;24.49;41.91
41142;SHT31;63666;52.284;20.890;2023-05-23T07:07:39;24.42;41.78
41142;SHT31;63666;52.284;20.890;2023-05-23T07:10:15;24.39;41.87
41142;SHT31;63666;52.284;20.890;2023-05-23T07:12:51;24.36;41.78
41142;SHT31;63666;52.284;20.890;2023-05-23T07:15:27;24.41;41.52
41142;SHT31;63666;52.284;20.890;2023-05-23T07:18:01;24.47;41.35
41142;SHT31;63666;52.284;20.890;2023-05-23T07:20:34;24.47;41.66
41142;SHT31;63666;52.284;20.890;2023-05-23T07:23:11;24.51;41.69
41142;SHT31;63666;52.284;20.890;2023-05-23T07:25:45;24.55;41.76
41142;SHT31;63666;52.284;20.890;2023-05-23T07:28:30;24.58;41.57
41142;SHT31;63666;52.284;20.890;2023-05-23T07:31:04;24.59;41.54
41142;SHT31;63666;52.284;20.890;2023-05-23T07:33:40;24.59;41.73
41142;SHT31;63666;52.284;20.890;2023-05-23T07:36:13;24.57;41.76
41142;SHT31;63666;52.284;20.890;2023-05-23T07:38:50;24.53;41.86
41142;SHT31;63666;52.284;20.890;2023-05-23T07:41:25;24.50;41.57
41142;SHT31;63666;52.284;20.890;2023-05-23T07:43:59;24.50;41.63
41142;SHT31;63666;52.284;20.890;2023-05-23T07:46:32;24.50;41.81
41142;SHT31;63666;52.284;20.890;2023-05-23T07:49:05;24.53;41.73
41142;SHT31;63666;52.284;20.890;2023-05-23T07:51:40;24.55;41.82
41142;SHT31;63666;52.284;20.890;2023-05-23T07:54:15;24.56;41.95
41142;SHT31;63666;52.284;20.890;2023-05-23T07:56:49;24.58;41.83
41142;SHT31;63666;52.284;20.890;2023-05-23T07:59:23;24.61;41.50
41142;SHT31;63666;52.284;20.890;2023-05-23T08:01:58;24.68;41.38
41142;SHT31;63666;52.284;20.890;2023-05-23T08:04:33;24.72;41.40
41142;SHT31;63666;52.284;20.890;2023-05-23T08:07:08;24.76;41.31
41142;SHT31;63666;52.284;20.890;2023-05-23T08:09:46;24.76;41.29
41142;SHT31;63666;52.284;20.890;2023-05-23T08:12:19;24.74;41.30
41142;SHT31;63666;52.284;20.890;2023-05-23T08:14:53;24.77;41.25
41142;SHT31;63666;52.284;20.890;2023-05-23T08:17:27;24.77;41.26
41142;SHT31;63666;52.284;20.890;2023-05-23T08:20:03;24.84;41.26
41142;SHT31;63666;52.284;20.890;2023-05-23T08:22:40;24.87;41.22
41142;SHT31;63666;52.284;20.890;2023-05-23T08:25:14;24.90;40.88
41142;SHT31;63666;52.284;20.890;2023-05-23T08:27:47;24.93;40.87
41142;SHT31;63666;52.284;20.890;2023-05-23T08:30:23;24.92;41.03
41142;SHT31;63666;52.284;20.890;2023-05-23T08:32:58;24.96;40.97
41142;SHT31;63666;52.284;20.890;2023-05-23T08:35:33;24.89;41.04
41142;SHT31;63666;52.284;20.890;2023-05-23T08:38:08;24.86;41.21
41142;SHT31;63666;52.284;20.890;2023-05-23T08:40:43;24.83;41.20
41142;SHT31;63666;52.284;20.890;2023-05-23T08:43:24;24.77;41.30
41142;SHT31;63666;52.284;20.890;2023-05-23T08:46:01;24.75;41.30
41142;SHT31;63666;52.284;20.890;2023-05-23T08:48:37;24.78;41.19
41142;SHT31;63666;52.284;20.890;2023-05-23T08:51:11;24.81;41.02
41142;SHT31;63666;52.284;20.890;2023-05-23T08:53:47;24.86;40.65
41142;SHT31;63666;52.284;20.890;2023-05-23T08:56:24;24.87;40.99
41142;SHT31;63666;52.284;20.890;2023-05-23T08:59:00;24.86;40.84
41142;SHT31;63666;52.284;20.890;2023-05-23T09:01:35;24.91;40.94
41142;SHT31;63666;52.284;20.890;2023-05-23T09:04:10;24.94;41.05
41142;SHT31;63666;52.284;20.890;2023-05-23T09:06:44;24.94;41.18
41142;SHT31;63666;52.284;20.890;2023-05-23T09:09:19;24.93;41.28
41142;SHT31;63666;52.284;20.890;2023-05-23T09:11:54;24.95;41.29
41142;SHT31;63666;52.284;20.890;2023-05-23T09:14:31;24.89;41.11
41142;SHT31;63666;52.284;20.890;2023-05-23T09:17:05;24.92;41.68
41142;SHT31;63666;52.284;20.890;2023-05-23T09:19:42;24.97;41.24
41142;SHT31;63666;52.284;20.890;2023-05-23T09:22:19;25.02;41.30
41142;SHT31;63666;52.284;20.890;2023-05-23T09:24:56;25.04;41.38
41142;SHT31;63666;52.284;20.890;2023-05-23T09:27:32;25.08;41.53
41142;SHT31;63666;52.284;20.890;2023-05-23T09:30:09;25.10;41.04
41142;SHT31;63666;52.284;20.890;2023-05-23T09:32:57;25.12;40.47
41142;SHT31;63666;52.284;20.890;2023-05-23T09:35:34;25.16;40.29
41142;SHT31;63666;52.284;20.890;2023-05-23T09:38:15;25.18;40.10
41142;SHT31;63666;52.284;20.890;2023-05-23T09:40:53;25.20;40.55
41142;SHT31;63666;52.284;20.890;2023-05-23T09:43:27;25.23;40.41
41142;SHT31;63666;52.284;20.890;2023-05-23T09:46:03;25.26;40.21
41142;SHT31;63666;52.284;20.890;2023-05-23T09:48:42;25.30;40.13
41142;SHT31;63666;52.284;20.890;2023-05-23T09:51:20;25.35;39.86
41142;SHT31;63666;52.284;20.890;2023-05-23T09:53:54;25.38;39.74
41142;SHT31;63666;52.284;20.890;2023-05-23T09:56:29;25.36;39.61
41142;SHT31;63666;52.284;20.890;2023-05-23T09:59:05;25.37;39.16
41142;SHT31;63666;52.284;20.890;2023-05-23T10:01:45;25.37;38.95
41142;SHT31;63666;52.284;20.890;2023-05-23T10:04:22;25.35;39.32
41142;SHT31;63666;52.284;20.890;2023-05-23T10:07:02;25.39;38.97
41142;SHT31;63666;52.284;20.890;2023-05-23T10:09:46;25.39;39.10
41142;SHT31;63666;52.284;20.890;2023-05-23T10:12:38;25.42;39.10
41142;SHT31;63666;52.284;20.890;2023-05-23T10:15:15;25.46;38.70
41142;SHT31;63666;52.284;20.890;2023-05-23T10:17:55;25.39;38.13
41142;SHT31;63666;52.284;20.890;2023-05-23T10:20:38;25.34;38.72
41142;SHT31;63666;52.284;20.890;2023-05-23T10:23:17;25.33;38.70
41142;SHT31;63666;52.284;20.890;2023-05-23T10:25:53;25.30;38.62
41142;SHT31;63666;52.284;20.890;2023-05-23T10:28:29;25.27;38.59
41142;SHT31;63666;52.284;20.890;2023-05-23T10:31:05;25.23;38.65
41142;SHT31;63666;52.284;20.890;2023-05-23T10:33:40;25.26;38.33
41142;SHT31;63666;52.284;20.890;2023-05-23T10:36:21;25.28;38.53
41142;SHT31;63666;52.284;20.890;2023-05-23T10:39:05;25.24;38.65
41142;SHT31;63666;52.284;20.890;2023-05-23T10:41:54;25.22;38.46
41142;SHT31;63666;52.284;20.890;2023-05-23T10:44:33;25.26;37.99
41142;SHT31;63666;52.284;20.890;2023-05-23T10:47:08;25.33;37.56
41142;SHT31;63666;52.284;20.890;2023-05-23T10:49:43;25.40;38.37
41142;SHT31;63666;52.284;20.890;2023-05-23T10:52:23;25.41;38.30
41142;SHT31;63666;52.284;20.890;2023-05-23T10:54:57;25.45;38.08
41142;SHT31;63666;52.284;20.890;2023-05-23T10:57:32;25.48;38.33
41142;SHT31;63666;52.284;20.890;2023-05-23T11:00:07;25.54;38.29
41142;SHT31;63666;52.284;20.890;2023-05-23T11:02:53;25.58;37.93
41142;SHT31;63666;52.284;20.890;2023-05-23T11:05:32;25.60;37.82
41142;SHT31;63666;52.284;20.890;2023-05-23T11:08:12;25.62;38.09
41142;SHT31;63666;52.284;20.890;2023-05-23T11:10:52;25.58;38.18
41142;SHT31;63666;52.284;20.890;2023-05-23T11:16:31;25.61;38.24
41142;SHT31;63666;52.284;20.890;2023-05-23T11:19:21;25.62;38.15
41142;SHT31;63666;52.284;20.890;2023-05-23T11:21:59;25.62;38.18
41142;SHT31;63666;52.284;20.890;2023-05-23T11:24:50;25.63;37.98
41142;SHT31;63666;52.284;20.890;2023-05-23T11:27:29;25.60;38.05
41142;SHT31;63666;52.284;20.890;2023-05-23T11:30:05;25.61;38.00
41142;SHT31;63666;52.284;20.890;2023-05-23T11:32:48;25.61;38.16
41142;SHT31;63666;52.284;20.890;2023-05-23T11:35:24;25.64;38.20
41142;SHT31;63666;52.284;20.890;2023-05-23T11:38:01;25.67;38.16
41142;SHT31;63666;52.284;20.890;2023-05-23T11:40:37;25.68;38.17
41142;SHT31;63666;52.284;20.890;2023-05-23T11:43:14;25.67;38.13
41142;SHT31;63666;52.284;20.890;2023-05-23T11:45:50;25.73;38.13
41142;SHT31;63666;52.284;20.890;2023-05-23T11:48:24;25.73;38.25
41142;SHT31;63666;52.284;20.890;2023-05-23T11:50:58;25.68;38.30
41142;SHT31;63666;52.284;20.890;2023-05-23T11:53:33;25.66;38.35
41142;SHT31;63666;52.284;20.890;2023-05-23T11:56:07;25.69;38.36
41142;SHT31;63666;52.284;20.890;2023-05-23T11:58:42;25.71;38.02
41142;SHT31;63666;52.284;20.890;2023-05-23T12:01:15;25.76;38.21
41142;SHT31;63666;52.284;20.890;2023-05-23T12:03:49;25.78;38.20
41142;SHT31;63666;52.284;20.890;2023-05-23T12:06:24;25.77;37.98
41142;SHT31;63666;52.284;20.890;2023-05-23T12:09:01;25.70;37.58
41142;SHT31;63666;52.284;20.890;2023-05-23T12:11:35;25.70;37.67
41142;SHT31;63666;52.284;20.890;2023-05-23T12:14:17;25.68;38.03
41142;SHT31;63666;52.284;20.890;2023-05-23T12:16:52;25.68;37.66
41142;SHT31;63666;52.284;20.890;2023-05-23T12:19:28;25.67;37.70
41142;SHT31;63666;52.284;20.890;2023-05-23T12:22:05;25.65;37.66
41142;SHT31;63666;52.284;20.890;2023-05-23T12:24:45;25.64;37.65
41142;SHT31;63666;52.284;20.890;2023-05-23T12:27:18;25.62;37.61
41142;SHT31;63666;52.284;20.890;2023-05-23T12:32:49;25.64;37.27
41142;SHT31;63666;52.284;20.890;2023-05-23T12:35:24;25.65;37.20
41142;SHT31;63666;52.284;20.890;2023-05-23T12:37:59;25.61;37.31
41142;SHT31;63666;52.284;20.890;2023-05-23T12:40:36;25.59;37.39
41142;SHT31;63666;52.284;20.890;2023-05-23T12:43:14;25.57;37.32
41142;SHT31;63666;52.284;20.890;2023-05-23T12:45:53;25.54;37.52
41142;SHT31;63666;52.284;20.890;2023-05-23T12:48:28;25.54;37.44
41142;SHT31;63666;52.284;20.890;2023-05-23T12:51:07;25.59;37.18
41142;SHT31;63666;52.284;20.890;2023-05-23T12:53:44;25.60;37.08
41142;SHT31;63666;52.284;20.890;2023-05-23T12:56:20;25.63;36.88
41142;SHT31;63666;52.284;20.890;2023-05-23T12:58:54;25.63;36.75
41142;SHT31;63666;52.284;20.890;2023-05-23T13:01:32;25.62;36.94
41142;SHT31;63666;52.284;20.890;2023-05-23T13:04:06;25.56;37.01
41142;SHT31;63666;52.284;20.890;2023-05-23T13:06:44;25.56;36.89
41142;SHT31;63666;52.284;20.890;2023-05-23T13:09:19;25.55;36.82
41142;SHT31;63666;52.284;20.890;2023-05-23T13:11:56;25.58;36.73
41142;SHT31;63666;52.284;20.890;2023-05-23T13:14:34;25.62;36.74
41142;SHT31;63666;52.284;20.890;2023-05-23T13:17:09;25.61;36.71
41142;SHT31;63666;52.284;20.890;2023-05-23T13:19:45;25.64;36.60
41142;SHT31;63666;52.284;20.890;2023-05-23T13:22:20;25.64;36.47
41142;SHT31;63666;52.284;20.890;2023-05-23T13:24:57;25.65;36.06
41142;SHT31;63666;52.284;20.890;2023-05-23T13:27:35;25.62;36.12
41142;SHT31;63666;52.284;20.890;2023-05-23T13:30:10;25.61;36.32
41142;SHT31;63666;52.284;20.890;2023-05-23T13:32:45;25.59;36.30
41142;SHT31;63666;52.284;20.890;2023-05-23T13:35:20;25.61;35.94
41142;SHT31;63666;52.284;20.890;2023-05-23T13:37:58;25.58;36.21
41142;SHT31;63666;52.284;20.890;2023-05-23T13:40:32;25.57;36.32
41142;SHT31;63666;52.284;20.890;2023-05-23T13:43:08;25.55;36.44
41142;SHT31;63666;52.284;20.890;2023-05-23T13:45:43;25.55;36.32
41142;SHT31;63666;52.284;20.890;2023-05-23T13:48:20;25.57;36.27
41142;SHT31;63666;52.284;20.890;2023-05-23T13:50:59;25.61;36.17
41142;SHT31;63666;52.284;20.890;2023-05-23T13:53:40;25.60;36.20
41142;SHT31;63666;52.284;20.890;2023-05-23T13:56:17;25.57;36.02
41142;SHT31;63666;52.284;20.890;2023-05-23T13:58:52;25.58;36.12
41142;SHT31;63666;52.284;20.890;2023-05-23T14:01:27;25.57;36.20
41142;SHT31;63666;52.284;20.890;2023-05-23T14:04:01;25.53;36.48
41142;SHT31;63666;52.284;20.890;2023-05-23T14:06:36;25.55;36.55
41142;SHT31;63666;52.284;20.890;2023-05-23T14:09:10;25.57;36.51
41142;SHT31;63666;52.284;20.890;2023-05-23T14:11:47;25.56;36.04
41142;SHT31;63666;52.284;20.890;2023-05-23T14:14:22;25.57;35.92
41142;SHT31;63666;52.284;20.890;2023-05-23T14:16:58;25.55;36.40
41142;SHT31;63666;52.284;20.890;2023-05-23T14:19:31;25.54;36.48
41142;SHT31;63666;52.284;20.890;2023-05-23T14:22:08;25.54;35.97
41142;SHT31;63666;52.284;20.890;2023-05-23T14:24:42;25.58;36.12
41142;SHT31;63666;52.284;20.890;2023-05-23T14:27:19;25.57;35.62
41142;SHT31;63666;52.284;20.890;2023-05-23T14:29:56;25.57;35.38
41142;SHT31;63666;52.284;20.890;2023-05-23T14:32:30;25.57;35.81
41142;SHT31;63666;52.284;20.890;2023-05-23T14:35:10;25.55;35.76
41142;SHT31;63666;52.284;20.890;2023-05-23T14:37:50;25.56;35.60
41142;SHT31;63666;52.284;20.890;2023-05-23T14:40:25;25.53;36.10
41142;SHT31;63666;52.284;20.890;2023-05-23T14:43:00;25.51;36.32
41142;SHT31;63666;52.284;20.890;2023-05-23T14:45:36;25.49;36.42
41142;SHT31;63666;52.284;20.890;2023-05-23T14:48:11;25.49;36.49
41142;SHT31;63666;52.284;20.890;2023-05-23T14:50:47;25.50;36.59
41142;SHT31;63666;52.284;20.890;2023-05-23T14:53:24;25.52;36.59
41142;SHT31;63666;52.284;20.890;2023-05-23T14:56:00;25.54;36.28
41142;SHT31;63666;52.284;20.890;2023-05-23T14:58:40;25.52;36.17
41142;SHT31;63666;52.284;20.890;2023-05-23T15:01:18;25.51;36.27
41142;SHT31;63666;52.284;20.890;2023-05-23T15:03:56;25.51;36.18
41142;SHT31;63666;52.284;20.890;2023-05-23T15:06:31;25.53;35.94
41142;SHT31;63666;52.284;20.890;2023-05-23T15:09:07;25.52;35.65
41142;SHT31;63666;52.284;20.890;2023-05-23T15:11:43;25.53;35.99
41142;SHT31;63666;52.284;20.890;2023-05-23T15:14:21;25.52;35.97
41142;SHT31;63666;52.284;20.890;2023-05-23T15:17:01;25.51;36.21
41142;SHT31;63666;52.284;20.890;2023-05-23T15:19:38;25.50;36.32
41142;SHT31;63666;52.284;20.890;2023-05-23T15:22:15;25.50;36.15
41142;SHT31;63666;52.284;20.890;2023-05-23T15:25:06;25.50;36.14
41142;SHT31;63666;52.284;20.890;2023-05-23T15:27:42;25.54;35.68
41142;SHT31;63666;52.284;20.890;2023-05-23T15:30:20;25.55;35.51
41142;SHT31;63666;52.284;20.890;2023-05-23T15:32:54;25.54;35.65
41142;SHT31;63666;52.284;20.890;2023-05-23T15:35:33;25.54;35.95
41142;SHT31;63666;52.284;20.890;2023-05-23T15:38:10;25.54;35.41
41142;SHT31;63666;52.284;20.890;2023-05-23T15:40:49;25.53;35.60
41142;SHT31;63666;52.284;20.890;2023-05-23T15:43:25;25.53;35.95
41142;SHT31;63666;52.284;20.890;2023-05-23T15:46:02;25.52;36.04
41142;SHT31;63666;52.284;20.890;2023-05-23T15:48:42;25.51;36.23
41142;SHT31;63666;52.284;20.890;2023-05-23T15:51:17;25.52;36.34
41142;SHT31;63666;52.284;20.890;2023-05-23T15:53:50;25.50;36.35
41142;SHT31;63666;52.284;20.890;2023-05-23T15:56:29;25.52;36.42
41142;SHT31;63666;52.284;20.890;2023-05-23T15:59:06;25.53;36.50
41142;SHT31;63666;52.284;20.890;2023-05-23T16:01:42;25.52;36.45
41142;SHT31;63666;52.284;20.890;2023-05-23T16:04:18;25.51;36.59
41142;SHT31;63666;52.284;20.890;2023-05-23T16:06:54;25.49;36.55
41142;SHT31;63666;52.284;20.890;2023-05-23T16:09:31;25.49;36.63
41142;SHT31;63666;52.284;20.890;2023-05-23T16:12:05;25.48;36.59
41142;SHT31;63666;52.284;20.890;2023-05-23T16:14:40;25.48;36.76
41142;SHT31;63666;52.284;20.890;2023-05-23T16:17:17;25.46;36.82